Aviation Discussion

.AVIATION...ISSUED 1151 PM EDT WED OCT 22 2014 //DISCUSSION... NOW THAT SKIES HAVE FINALLY CLEARED THE SET UP IS FAVORABLE FOR SOME RADIATIONAL FOG DURING THE EARLY MORNING HOURS. CURRENT INDICATIONS ARE SUGGESTING FOG MAY NOT BE TOO WIDESPREAD. NONETHELESS SOME BRIEF INTERVALS OF MVFR AND IFR CERTAINLY RAIN POSSIBLE TOWARD DAYBREAK. FOR DTW...LESS INFLUENCE FROM LAKE HURON AND WARMER NIGHTTIME MINS IN METRO DETROIT WILL BE LIMITING FACTORS FOR FOG DEVELOPMENT. IN LIGHT OF COOLING POTENTIAL...A BRIEF PERIOD OF MVFR VSBY TOWARD DAYBREAK WILL CONTINUE TO BE FORECAST. //DTW THRESHOLD THREATS... * NONE.

KDTW 230520Z 2306/2412 36003KT P6SM SKC
FM231000 VRB03KT 5SM BR SKC
FM231400 VRB05KT P6SM SKC
FM240800 24006KT P6SM OVC060=

KDET 230520Z 2306/2406 02005KT P6SM SKC
FM231000 VRB03KT 6SM BR SKC
FM231400 VRB05KT P6SM SKC=

Cleveland Center Weather Service Unit (CWSU)
Mission:
Our main responsibility is to provide up to the minute weather information to FAA Supervisors and the ZOB Traffic Management Unit (TMU). Some of the products issued by the CWSU are the Center Weather Advisories (CWA) and the Meteorological Impact Statement (MIS). The CWA is an aviation weather warning for thunderstorms, severe icing or turbulence, and low IFR ceilings and visibility. The MIS is a 2-12 hour forecast for weather conditions, which are expected to impact ARTCC operations.
 
Operations:
The Cleveland Center Weather Service Unit (ZOB CWSU) is located at the Federal Aviation Administration (FAA) Air Route Traffic Control Center (ARTCC) in Oberlin, OH. Four National Weather Service meteorologists staff the office. Our hours of operation are from 6:00 A.M. to 9:30 P.M. daily.

Web Site Owner:
NOAA National Weather Service
Cleveland ARTCC Attn:CWSU
326 East Lorain Street
Oberlin, OH 44074
Web Administrator:Webmaster
Page last modified: 23 Feb 2013
Disclaimer
Credits
Glossary
Privacy Policy
About Our Organization
Career Opportunities